sensor_id;sensor_type;location;lat;lon;timestamp;P1;durP1;ratioP1;P2;durP2;ratioP2
12884;SDS011;6510;51.362;7.370;2022-12-18T00:02:06;8.50;;;2.10;;
12884;SDS011;6510;51.362;7.370;2022-12-18T00:04:31;3.17;;;2.20;;
12884;SDS011;6510;51.362;7.370;2022-12-18T00:06:57;2.90;;;1.97;;
12884;SDS011;6510;51.362;7.370;2022-12-18T00:09:23;5.27;;;1.87;;
12884;SDS011;6510;51.362;7.370;2022-12-18T00:11:48;3.57;;;2.27;;
12884;SDS011;6510;51.362;7.370;2022-12-18T00:14:14;2.33;;;2.00;;
12884;SDS011;6510;51.362;7.370;2022-12-18T00:16:42;4.50;;;2.47;;
12884;SDS011;6510;51.362;7.370;2022-12-18T00:19:09;3.53;;;2.10;;
12884;SDS011;6510;51.362;7.370;2022-12-18T00:21:35;5.20;;;2.50;;
12884;SDS011;6510;51.362;7.370;2022-12-18T00:24:01;2.50;;;2.00;;
12884;SDS011;6510;51.362;7.370;2022-12-18T00:26:30;3.03;;;2.00;;
12884;SDS011;6510;51.362;7.370;2022-12-18T00:28:59;2.63;;;1.90;;
12884;SDS011;6510;51.362;7.370;2022-12-18T00:31:28;3.90;;;2.17;;
12884;SDS011;6510;51.362;7.370;2022-12-18T00:33:54;4.67;;;2.37;;
12884;SDS011;6510;51.362;7.370;2022-12-18T00:36:24;2.60;;;2.03;;
12884;SDS011;6510;51.362;7.370;2022-12-18T00:38:51;3.43;;;2.40;;
12884;SDS011;6510;51.362;7.370;2022-12-18T00:41:18;4.27;;;2.10;;
12884;SDS011;6510;51.362;7.370;2022-12-18T00:44:03;3.30;;;2.23;;
12884;SDS011;6510;51.362;7.370;2022-12-18T00:46:30;3.00;;;2.47;;
12884;SDS011;6510;51.362;7.370;2022-12-18T00:48:56;3.33;;;2.20;;
12884;SDS011;6510;51.362;7.370;2022-12-18T00:51:21;3.10;;;2.03;;
12884;SDS011;6510;51.362;7.370;2022-12-18T00:53:47;3.50;;;2.50;;
12884;SDS011;6510;51.362;7.370;2022-12-18T00:56:13;3.13;;;2.23;;
12884;SDS011;6510;51.362;7.370;2022-12-18T00:58:38;3.63;;;2.30;;
12884;SDS011;6510;51.362;7.370;2022-12-18T01:01:04;3.67;;;2.20;;
12884;SDS011;6510;51.362;7.370;2022-12-18T01:03:30;3.63;;;2.13;;
12884;SDS011;6510;51.362;7.370;2022-12-18T01:05:56;3.50;;;2.30;;
12884;SDS011;6510;51.362;7.370;2022-12-18T01:08:22;4.57;;;2.60;;
12884;SDS011;6510;51.362;7.370;2022-12-18T01:10:47;3.70;;;2.50;;
12884;SDS011;6510;51.362;7.370;2022-12-18T01:13:13;2.50;;;2.30;;
12884;SDS011;6510;51.362;7.370;2022-12-18T01:15:39;2.37;;;2.17;;
12884;SDS011;6510;51.362;7.370;2022-12-18T01:18:05;5.80;;;2.73;;
12884;SDS011;6510;51.362;7.370;2022-12-18T01:20:31;3.33;;;2.60;;
12884;SDS011;6510;51.362;7.370;2022-12-18T01:22:57;3.80;;;2.23;;
12884;SDS011;6510;51.362;7.370;2022-12-18T01:25:22;3.87;;;2.10;;
12884;SDS011;6510;51.362;7.370;2022-12-18T01:27:48;4.30;;;2.43;;
12884;SDS011;6510;51.362;7.370;2022-12-18T01:30:14;2.73;;;2.10;;
12884;SDS011;6510;51.362;7.370;2022-12-18T01:32:40;3.77;;;2.20;;
12884;SDS011;6510;51.362;7.370;2022-12-18T01:35:06;4.03;;;2.40;;
12884;SDS011;6510;51.362;7.370;2022-12-18T01:37:32;2.60;;;2.03;;
12884;SDS011;6510;51.362;7.370;2022-12-18T01:40:00;4.03;;;2.67;;
12884;SDS011;6510;51.362;7.370;2022-12-18T01:42:26;3.33;;;2.63;;
12884;SDS011;6510;51.362;7.370;2022-12-18T01:47:52;3.17;;;2.10;;
12884;SDS011;6510;51.362;7.370;2022-12-18T01:50:25;3.60;;;2.43;;
12884;SDS011;6510;51.362;7.370;2022-12-18T01:52:58;3.60;;;2.13;;
12884;SDS011;6510;51.362;7.370;2022-12-18T01:55:29;3.23;;;2.23;;
12884;SDS011;6510;51.362;7.370;2022-12-18T01:57:57;2.97;;;2.27;;
12884;SDS011;6510;51.362;7.370;2022-12-18T02:00:25;3.90;;;2.20;;
12884;SDS011;6510;51.362;7.370;2022-12-18T02:02:52;3.57;;;2.23;;
12884;SDS011;6510;51.362;7.370;2022-12-18T02:05:19;3.80;;;2.50;;
12884;SDS011;6510;51.362;7.370;2022-12-18T02:07:58;2.60;;;2.10;;
12884;SDS011;6510;51.362;7.370;2022-12-18T02:18:53;3.87;;;2.40;;
12884;SDS011;6510;51.362;7.370;2022-12-18T02:24:02;3.77;;;2.47;;
12884;SDS011;6510;51.362;7.370;2022-12-18T02:26:48;3.50;;;2.50;;
12884;SDS011;6510;51.362;7.370;2022-12-18T02:29:18;3.53;;;2.27;;
12884;SDS011;6510;51.362;7.370;2022-12-18T02:31:52;2.50;;;2.07;;
12884;SDS011;6510;51.362;7.370;2022-12-18T02:34:21;3.13;;;2.27;;
12884;SDS011;6510;51.362;7.370;2022-12-18T02:36:51;4.60;;;2.70;;
12884;SDS011;6510;51.362;7.370;2022-12-18T02:39:19;3.63;;;2.43;;
12884;SDS011;6510;51.362;7.370;2022-12-18T02:41:47;4.27;;;2.90;;
12884;SDS011;6510;51.362;7.370;2022-12-18T02:44:13;2.07;;;1.87;;
12884;SDS011;6510;51.362;7.370;2022-12-18T02:46:40;4.23;;;2.40;;
12884;SDS011;6510;51.362;7.370;2022-12-18T02:49:21;2.93;;;2.50;;
12884;SDS011;6510;51.362;7.370;2022-12-18T02:52:05;2.50;;;2.30;;
12884;SDS011;6510;51.362;7.370;2022-12-18T02:54:57;2.90;;;2.33;;
12884;SDS011;6510;51.362;7.370;2022-12-18T02:57:44;4.23;;;2.93;;
12884;SDS011;6510;51.362;7.370;2022-12-18T03:00:18;3.47;;;2.50;;
12884;SDS011;6510;51.362;7.370;2022-12-18T03:02:55;3.50;;;2.60;;
12884;SDS011;6510;51.362;7.370;2022-12-18T03:05:30;3.30;;;2.30;;
12884;SDS011;6510;51.362;7.370;2022-12-18T03:10:42;2.57;;;2.17;;
12884;SDS011;6510;51.362;7.370;2022-12-18T03:13:23;3.20;;;2.53;;
12884;SDS011;6510;51.362;7.370;2022-12-18T03:15:53;2.60;;;2.23;;
12884;SDS011;6510;51.362;7.370;2022-12-18T03:18:25;3.33;;;2.50;;
12884;SDS011;6510;51.362;7.370;2022-12-18T03:20:58;3.10;;;2.30;;
12884;SDS011;6510;51.362;7.370;2022-12-18T03:23:29;3.03;;;2.20;;
12884;SDS011;6510;51.362;7.370;2022-12-18T03:25:59;3.57;;;2.20;;
12884;SDS011;6510;51.362;7.370;2022-12-18T03:28:38;2.40;;;2.07;;
12884;SDS011;6510;51.362;7.370;2022-12-18T03:31:08;2.47;;;2.10;;
12884;SDS011;6510;51.362;7.370;2022-12-18T03:33:47;3.23;;;2.20;;
12884;SDS011;6510;51.362;7.370;2022-12-18T03:36:16;3.50;;;2.43;;
12884;SDS011;6510;51.362;7.370;2022-12-18T03:38:42;1.73;;;1.63;;
12884;SDS011;6510;51.362;7.370;2022-12-18T03:43:54;2.30;;;1.80;;
12884;SDS011;6510;51.362;7.370;2022-12-18T03:49:38;2.20;;;1.80;;
12884;SDS011;6510;51.362;7.370;2022-12-18T03:52:24;4.10;;;2.27;;
12884;SDS011;6510;51.362;7.370;2022-12-18T03:54:55;3.07;;;2.07;;
12884;SDS011;6510;51.362;7.370;2022-12-18T03:57:24;2.60;;;2.17;;
12884;SDS011;6510;51.362;7.370;2022-12-18T03:59:54;3.43;;;2.13;;
12884;SDS011;6510;51.362;7.370;2022-12-18T04:02:23;3.03;;;2.00;;
12884;SDS011;6510;51.362;7.370;2022-12-18T04:04:51;4.20;;;2.17;;
12884;SDS011;6510;51.362;7.370;2022-12-18T04:07:18;2.10;;;1.90;;
12884;SDS011;6510;51.362;7.370;2022-12-18T04:09:46;2.83;;;2.10;;
12884;SDS011;6510;51.362;7.370;2022-12-18T04:12:13;1.83;;;1.70;;
12884;SDS011;6510;51.362;7.370;2022-12-18T04:14:38;3.13;;;1.93;;
12884;SDS011;6510;51.362;7.370;2022-12-18T04:17:04;1.70;;;1.60;;
12884;SDS011;6510;51.362;7.370;2022-12-18T04:19:30;2.57;;;1.90;;
12884;SDS011;6510;51.362;7.370;2022-12-18T04:21:55;2.33;;;2.00;;
12884;SDS011;6510;51.362;7.370;2022-12-18T04:24:21;3.80;;;2.03;;
12884;SDS011;6510;51.362;7.370;2022-12-18T04:26:47;2.33;;;1.73;;
12884;SDS011;6510;51.362;7.370;2022-12-18T04:29:12;2.30;;;2.00;;
12884;SDS011;6510;51.362;7.370;2022-12-18T04:31:38;3.20;;;2.10;;
12884;SDS011;6510;51.362;7.370;2022-12-18T04:34:03;3.17;;;2.10;;
12884;SDS011;6510;51.362;7.370;2022-12-18T04:36:29;3.87;;;2.13;;
12884;SDS011;6510;51.362;7.370;2022-12-18T04:38:55;2.37;;;2.10;;
12884;SDS011;6510;51.362;7.370;2022-12-18T04:41:21;2.83;;;2.03;;
12884;SDS011;6510;51.362;7.370;2022-12-18T04:43:46;2.57;;;2.10;;
12884;SDS011;6510;51.362;7.370;2022-12-18T04:46:12;2.93;;;2.00;;
12884;SDS011;6510;51.362;7.370;2022-12-18T04:48:38;2.83;;;2.10;;
12884;SDS011;6510;51.362;7.370;2022-12-18T04:51:07;3.07;;;2.30;;
12884;SDS011;6510;51.362;7.370;2022-12-18T04:53:32;3.57;;;1.83;;
12884;SDS011;6510;51.362;7.370;2022-12-18T04:56:16;3.43;;;2.30;;
12884;SDS011;6510;51.362;7.370;2022-12-18T04:58:43;2.33;;;2.00;;
12884;SDS011;6510;51.362;7.370;2022-12-18T05:01:09;2.10;;;1.70;;
12884;SDS011;6510;51.362;7.370;2022-12-18T05:03:36;2.37;;;1.60;;
12884;SDS011;6510;51.362;7.370;2022-12-18T05:06:02;2.40;;;1.93;;
12884;SDS011;6510;51.362;7.370;2022-12-18T05:08:31;2.77;;;1.60;;
12884;SDS011;6510;51.362;7.370;2022-12-18T05:13:32;2.60;;;1.80;;
12884;SDS011;6510;51.362;7.370;2022-12-18T05:15:58;2.53;;;1.87;;
12884;SDS011;6510;51.362;7.370;2022-12-18T05:18:25;4.10;;;1.60;;
12884;SDS011;6510;51.362;7.370;2022-12-18T05:20:51;3.00;;;2.10;;
12884;SDS011;6510;51.362;7.370;2022-12-18T05:23:18;1.90;;;1.70;;
12884;SDS011;6510;51.362;7.370;2022-12-18T05:25:50;2.53;;;1.70;;
12884;SDS011;6510;51.362;7.370;2022-12-18T05:28:18;2.73;;;1.87;;
12884;SDS011;6510;51.362;7.370;2022-12-18T05:30:47;1.77;;;1.57;;
12884;SDS011;6510;51.362;7.370;2022-12-18T05:33:14;2.03;;;1.50;;
12884;SDS011;6510;51.362;7.370;2022-12-18T05:35:40;4.57;;;2.20;;
12884;SDS011;6510;51.362;7.370;2022-12-18T05:38:05;4.43;;;1.80;;
12884;SDS011;6510;51.362;7.370;2022-12-18T05:40:31;4.00;;;1.87;;
12884;SDS011;6510;51.362;7.370;2022-12-18T05:42:56;2.53;;;1.67;;
12884;SDS011;6510;51.362;7.370;2022-12-18T05:45:22;3.57;;;1.90;;
12884;SDS011;6510;51.362;7.370;2022-12-18T05:47:48;2.63;;;2.10;;
12884;SDS011;6510;51.362;7.370;2022-12-18T05:50:13;2.37;;;1.90;;
12884;SDS011;6510;51.362;7.370;2022-12-18T05:52:39;2.67;;;1.70;;
12884;SDS011;6510;51.362;7.370;2022-12-18T05:55:04;3.13;;;2.07;;
12884;SDS011;6510;51.362;7.370;2022-12-18T05:57:30;3.37;;;1.80;;
12884;SDS011;6510;51.362;7.370;2022-12-18T05:59:56;2.00;;;1.80;;
12884;SDS011;6510;51.362;7.370;2022-12-18T06:02:21;2.27;;;2.00;;
12884;SDS011;6510;51.362;7.370;2022-12-18T06:04:47;2.10;;;1.90;;
12884;SDS011;6510;51.362;7.370;2022-12-18T06:07:13;2.97;;;2.07;;
12884;SDS011;6510;51.362;7.370;2022-12-18T06:09:38;1.97;;;1.70;;
12884;SDS011;6510;51.362;7.370;2022-12-18T06:12:04;2.97;;;2.20;;
12884;SDS011;6510;51.362;7.370;2022-12-18T06:14:30;3.03;;;1.67;;
12884;SDS011;6510;51.362;7.370;2022-12-18T06:16:55;3.00;;;2.10;;
12884;SDS011;6510;51.362;7.370;2022-12-18T06:19:21;2.77;;;2.00;;
12884;SDS011;6510;51.362;7.370;2022-12-18T06:21:47;2.87;;;1.63;;
12884;SDS011;6510;51.362;7.370;2022-12-18T06:24:12;3.80;;;2.03;;
12884;SDS011;6510;51.362;7.370;2022-12-18T06:26:38;3.53;;;2.20;;
12884;SDS011;6510;51.362;7.370;2022-12-18T06:29:04;2.70;;;2.03;;
12884;SDS011;6510;51.362;7.370;2022-12-18T06:31:30;5.03;;;2.17;;
12884;SDS011;6510;51.362;7.370;2022-12-18T06:33:56;2.40;;;2.00;;
12884;SDS011;6510;51.362;7.370;2022-12-18T06:36:21;4.27;;;2.20;;
12884;SDS011;6510;51.362;7.370;2022-12-18T06:38:47;3.27;;;2.03;;
12884;SDS011;6510;51.362;7.370;2022-12-18T06:41:14;2.97;;;2.17;;
12884;SDS011;6510;51.362;7.370;2022-12-18T06:43:41;4.07;;;2.40;;
12884;SDS011;6510;51.362;7.370;2022-12-18T06:46:07;5.33;;;2.93;;
12884;SDS011;6510;51.362;7.370;2022-12-18T06:48:34;3.40;;;2.37;;
12884;SDS011;6510;51.362;7.370;2022-12-18T06:50:59;3.97;;;2.40;;
12884;SDS011;6510;51.362;7.370;2022-12-18T06:53:25;3.70;;;2.23;;
12884;SDS011;6510;51.362;7.370;2022-12-18T06:55:51;3.63;;;2.30;;
12884;SDS011;6510;51.362;7.370;2022-12-18T06:58:17;3.90;;;2.60;;
12884;SDS011;6510;51.362;7.370;2022-12-18T07:00:43;3.07;;;2.40;;
12884;SDS011;6510;51.362;7.370;2022-12-18T07:03:11;5.43;;;3.60;;
12884;SDS011;6510;51.362;7.370;2022-12-18T07:05:40;4.87;;;2.73;;
12884;SDS011;6510;51.362;7.370;2022-12-18T07:08:06;8.17;;;3.87;;
12884;SDS011;6510;51.362;7.370;2022-12-18T07:10:31;5.53;;;3.23;;
12884;SDS011;6510;51.362;7.370;2022-12-18T07:12:57;4.33;;;2.57;;
12884;SDS011;6510;51.362;7.370;2022-12-18T07:15:22;9.30;;;3.83;;
12884;SDS011;6510;51.362;7.370;2022-12-18T07:17:48;8.20;;;3.67;;
12884;SDS011;6510;51.362;7.370;2022-12-18T07:20:13;5.73;;;2.87;;
12884;SDS011;6510;51.362;7.370;2022-12-18T07:22:39;3.70;;;2.53;;
12884;SDS011;6510;51.362;7.370;2022-12-18T07:25:05;4.30;;;2.60;;
12884;SDS011;6510;51.362;7.370;2022-12-18T07:27:31;2.97;;;2.50;;
12884;SDS011;6510;51.362;7.370;2022-12-18T07:29:57;4.67;;;2.50;;
12884;SDS011;6510;51.362;7.370;2022-12-18T07:32:22;4.57;;;2.23;;
12884;SDS011;6510;51.362;7.370;2022-12-18T07:34:48;3.47;;;2.33;;
12884;SDS011;6510;51.362;7.370;2022-12-18T07:37:14;3.73;;;2.40;;
12884;SDS011;6510;51.362;7.370;2022-12-18T07:39:39;2.33;;;1.90;;
12884;SDS011;6510;51.362;7.370;2022-12-18T07:42:05;4.20;;;2.50;;
12884;SDS011;6510;51.362;7.370;2022-12-18T07:44:49;3.10;;;2.13;;
12884;SDS011;6510;51.362;7.370;2022-12-18T07:47:15;2.00;;;1.83;;
12884;SDS011;6510;51.362;7.370;2022-12-18T07:49:40;5.23;;;3.13;;
12884;SDS011;6510;51.362;7.370;2022-12-18T07:52:06;4.37;;;3.20;;
12884;SDS011;6510;51.362;7.370;2022-12-18T07:54:32;4.63;;;2.53;;
12884;SDS011;6510;51.362;7.370;2022-12-18T07:56:57;4.30;;;3.30;;
12884;SDS011;6510;51.362;7.370;2022-12-18T07:59:23;8.70;;;6.03;;
12884;SDS011;6510;51.362;7.370;2022-12-18T08:01:48;6.00;;;3.60;;
12884;SDS011;6510;51.362;7.370;2022-12-18T08:04:14;5.27;;;2.60;;
12884;SDS011;6510;51.362;7.370;2022-12-18T08:06:40;4.87;;;2.60;;
12884;SDS011;6510;51.362;7.370;2022-12-18T08:09:06;2.57;;;2.13;;
12884;SDS011;6510;51.362;7.370;2022-12-18T08:11:33;3.33;;;2.60;;
12884;SDS011;6510;51.362;7.370;2022-12-18T08:13:58;6.77;;;4.03;;
12884;SDS011;6510;51.362;7.370;2022-12-18T08:16:24;2.90;;;2.20;;
12884;SDS011;6510;51.362;7.370;2022-12-18T08:18:51;2.70;;;2.27;;
12884;SDS011;6510;51.362;7.370;2022-12-18T08:21:18;3.93;;;2.90;;
12884;SDS011;6510;51.362;7.370;2022-12-18T08:23:49;5.03;;;3.30;;
12884;SDS011;6510;51.362;7.370;2022-12-18T08:26:15;2.20;;;2.00;;
12884;SDS011;6510;51.362;7.370;2022-12-18T08:28:41;5.07;;;3.50;;
12884;SDS011;6510;51.362;7.370;2022-12-18T08:31:08;6.23;;;3.03;;
12884;SDS011;6510;51.362;7.370;2022-12-18T08:33:34;4.40;;;2.63;;
12884;SDS011;6510;51.362;7.370;2022-12-18T08:36:00;3.90;;;3.43;;
12884;SDS011;6510;51.362;7.370;2022-12-18T08:38:27;5.03;;;2.97;;
12884;SDS011;6510;51.362;7.370;2022-12-18T08:41:02;3.60;;;2.10;;
12884;SDS011;6510;51.362;7.370;2022-12-18T08:43:30;5.53;;;2.60;;
12884;SDS011;6510;51.362;7.370;2022-12-18T08:46:15;5.47;;;3.30;;
12884;SDS011;6510;51.362;7.370;2022-12-18T08:48:43;4.40;;;2.93;;
12884;SDS011;6510;51.362;7.370;2022-12-18T08:51:08;5.70;;;3.33;;
12884;SDS011;6510;51.362;7.370;2022-12-18T08:53:34;3.50;;;2.67;;
12884;SDS011;6510;51.362;7.370;2022-12-18T08:56:01;3.07;;;2.47;;
12884;SDS011;6510;51.362;7.370;2022-12-18T08:58:27;3.93;;;2.70;;
12884;SDS011;6510;51.362;7.370;2022-12-18T09:00:52;4.23;;;2.57;;
12884;SDS011;6510;51.362;7.370;2022-12-18T09:03:18;2.90;;;2.60;;
12884;SDS011;6510;51.362;7.370;2022-12-18T09:05:47;4.63;;;2.33;;
12884;SDS011;6510;51.362;7.370;2022-12-18T09:08:13;9.27;;;3.60;;
12884;SDS011;6510;51.362;7.370;2022-12-18T09:10:45;4.73;;;2.60;;
12884;SDS011;6510;51.362;7.370;2022-12-18T09:13:11;5.00;;;2.90;;
12884;SDS011;6510;51.362;7.370;2022-12-18T09:15:41;3.93;;;2.70;;
12884;SDS011;6510;51.362;7.370;2022-12-18T09:18:08;4.20;;;2.97;;
12884;SDS011;6510;51.362;7.370;2022-12-18T09:20:35;6.37;;;3.60;;
12884;SDS011;6510;51.362;7.370;2022-12-18T09:23:01;3.30;;;2.60;;
12884;SDS011;6510;51.362;7.370;2022-12-18T09:25:28;3.27;;;2.77;;
12884;SDS011;6510;51.362;7.370;2022-12-18T09:28:05;3.47;;;2.53;;
12884;SDS011;6510;51.362;7.370;2022-12-18T09:30:34;4.53;;;2.37;;
12884;SDS011;6510;51.362;7.370;2022-12-18T09:33:03;2.93;;;2.50;;
12884;SDS011;6510;51.362;7.370;2022-12-18T09:35:28;7.43;;;3.07;;
12884;SDS011;6510;51.362;7.370;2022-12-18T09:37:54;4.37;;;2.47;;
12884;SDS011;6510;51.362;7.370;2022-12-18T09:40:22;4.77;;;2.57;;
12884;SDS011;6510;51.362;7.370;2022-12-18T09:42:54;3.43;;;2.57;;
12884;SDS011;6510;51.362;7.370;2022-12-18T09:45:24;2.97;;;2.20;;
12884;SDS011;6510;51.362;7.370;2022-12-18T09:47:49;4.97;;;2.90;;
12884;SDS011;6510;51.362;7.370;2022-12-18T09:53:11;3.20;;;2.30;;
12884;SDS011;6510;51.362;7.370;2022-12-18T09:55:44;2.80;;;2.00;;
12884;SDS011;6510;51.362;7.370;2022-12-18T10:00:53;4.13;;;2.20;;
12884;SDS011;6510;51.362;7.370;2022-12-18T10:03:19;2.50;;;2.30;;
12884;SDS011;6510;51.362;7.370;2022-12-18T10:27:58;3.20;;;2.53;;
12884;SDS011;6510;51.362;7.370;2022-12-18T10:30:32;3.63;;;2.50;;
12884;SDS011;6510;51.362;7.370;2022-12-18T10:33:01;2.43;;;2.13;;
12884;SDS011;6510;51.362;7.370;2022-12-18T10:35:27;5.70;;;2.87;;
12884;SDS011;6510;51.362;7.370;2022-12-18T10:40:25;6.43;;;2.63;;
12884;SDS011;6510;51.362;7.370;2022-12-18T10:45:39;6.53;;;4.73;;
12884;SDS011;6510;51.362;7.370;2022-12-18T10:48:27;3.80;;;2.60;;
12884;SDS011;6510;51.362;7.370;2022-12-18T10:50:52;3.67;;;2.50;;
12884;SDS011;6510;51.362;7.370;2022-12-18T10:53:23;3.17;;;2.53;;
12884;SDS011;6510;51.362;7.370;2022-12-18T10:55:50;3.37;;;2.30;;
12884;SDS011;6510;51.362;7.370;2022-12-18T10:58:23;2.87;;;2.50;;
12884;SDS011;6510;51.362;7.370;2022-12-18T11:03:45;3.37;;;2.80;;
12884;SDS011;6510;51.362;7.370;2022-12-18T11:06:24;3.40;;;2.67;;
12884;SDS011;6510;51.362;7.370;2022-12-18T11:09:17;3.77;;;2.70;;
12884;SDS011;6510;51.362;7.370;2022-12-18T11:11:51;3.80;;;2.40;;
12884;SDS011;6510;51.362;7.370;2022-12-18T11:16:50;3.20;;;2.20;;
12884;SDS011;6510;51.362;7.370;2022-12-18T11:22:03;5.37;;;2.97;;
12884;SDS011;6510;51.362;7.370;2022-12-18T11:27:22;5.77;;;3.57;;
12884;SDS011;6510;51.362;7.370;2022-12-18T11:29:49;3.40;;;2.33;;
12884;SDS011;6510;51.362;7.370;2022-12-18T11:32:29;5.07;;;2.70;;
12884;SDS011;6510;51.362;7.370;2022-12-18T11:35:03;4.03;;;2.67;;
12884;SDS011;6510;51.362;7.370;2022-12-18T11:37:30;4.83;;;2.83;;
12884;SDS011;6510;51.362;7.370;2022-12-18T11:40:09;3.77;;;2.60;;
12884;SDS011;6510;51.362;7.370;2022-12-18T11:42:47;3.60;;;2.50;;
12884;SDS011;6510;51.362;7.370;2022-12-18T11:45:28;3.80;;;2.73;;
12884;SDS011;6510;51.362;7.370;2022-12-18T11:48:16;5.40;;;2.80;;
12884;SDS011;6510;51.362;7.370;2022-12-18T11:53:16;4.77;;;2.80;;
12884;SDS011;6510;51.362;7.370;2022-12-18T12:11:48;5.43;;;3.00;;
12884;SDS011;6510;51.362;7.370;2022-12-18T12:14:44;3.10;;;2.70;;
12884;SDS011;6510;51.362;7.370;2022-12-18T12:17:37;3.20;;;2.70;;
12884;SDS011;6510;51.362;7.370;2022-12-18T12:20:27;5.30;;;3.70;;
12884;SDS011;6510;51.362;7.370;2022-12-18T12:23:20;6.23;;;3.20;;
12884;SDS011;6510;51.362;7.370;2022-12-18T12:26:11;5.10;;;3.77;;
12884;SDS011;6510;51.362;7.370;2022-12-18T12:29:13;8.77;;;6.30;;
12884;SDS011;6510;51.362;7.370;2022-12-18T12:31:53;7.13;;;5.97;;
12884;SDS011;6510;51.362;7.370;2022-12-18T12:34:26;6.00;;;3.73;;
12884;SDS011;6510;51.362;7.370;2022-12-18T12:39:35;6.83;;;5.10;;
12884;SDS011;6510;51.362;7.370;2022-12-18T12:42:05;7.83;;;5.40;;
12884;SDS011;6510;51.362;7.370;2022-12-18T12:45:18;7.63;;;4.50;;
12884;SDS011;6510;51.362;7.370;2022-12-18T12:47:48;3.53;;;3.03;;
12884;SDS011;6510;51.362;7.370;2022-12-18T12:50:16;7.10;;;3.77;;
12884;SDS011;6510;51.362;7.370;2022-12-18T12:52:45;6.20;;;4.63;;
12884;SDS011;6510;51.362;7.370;2022-12-18T12:55:25;8.97;;;5.13;;
12884;SDS011;6510;51.362;7.370;2022-12-18T12:57:57;11.43;;;5.60;;
12884;SDS011;6510;51.362;7.370;2022-12-18T13:00:54;4.53;;;3.43;;
12884;SDS011;6510;51.362;7.370;2022-12-18T13:03:52;5.10;;;3.10;;
12884;SDS011;6510;51.362;7.370;2022-12-18T13:09:13;4.07;;;3.33;;
12884;SDS011;6510;51.362;7.370;2022-12-18T13:19:39;5.60;;;3.63;;
12884;SDS011;6510;51.362;7.370;2022-12-18T13:22:12;8.43;;;3.83;;
12884;SDS011;6510;51.362;7.370;2022-12-18T13:24:50;6.17;;;4.00;;
12884;SDS011;6510;51.362;7.370;2022-12-18T13:38:32;8.47;;;5.43;;
12884;SDS011;6510;51.362;7.370;2022-12-18T13:41:00;8.63;;;5.57;;
12884;SDS011;6510;51.362;7.370;2022-12-18T13:43:33;10.80;;;6.40;;
12884;SDS011;6510;51.362;7.370;2022-12-18T13:46:18;6.87;;;4.73;;
12884;SDS011;6510;51.362;7.370;2022-12-18T13:49:02;7.87;;;5.20;;
12884;SDS011;6510;51.362;7.370;2022-12-18T13:51:33;7.00;;;4.70;;
12884;SDS011;6510;51.362;7.370;2022-12-18T13:54:06;44.83;;;19.50;;
12884;SDS011;6510;51.362;7.370;2022-12-18T13:59:54;9.30;;;5.07;;
12884;SDS011;6510;51.362;7.370;2022-12-18T14:02:21;16.87;;;8.87;;
12884;SDS011;6510;51.362;7.370;2022-12-18T14:04:52;12.47;;;8.63;;
12884;SDS011;6510;51.362;7.370;2022-12-18T14:07:19;10.23;;;6.67;;
12884;SDS011;6510;51.362;7.370;2022-12-18T14:09:54;7.47;;;5.07;;
12884;SDS011;6510;51.362;7.370;2022-12-18T14:12:32;8.47;;;5.43;;
12884;SDS011;6510;51.362;7.370;2022-12-18T14:17:54;8.53;;;5.30;;
12884;SDS011;6510;51.362;7.370;2022-12-18T14:20:24;13.90;;;6.33;;
12884;SDS011;6510;51.362;7.370;2022-12-18T14:22:51;7.90;;;5.33;;
12884;SDS011;6510;51.362;7.370;2022-12-18T14:25:24;8.90;;;5.17;;
12884;SDS011;6510;51.362;7.370;2022-12-18T14:27:52;6.57;;;5.00;;
12884;SDS011;6510;51.362;7.370;2022-12-18T14:35:41;9.33;;;5.70;;
12884;SDS011;6510;51.362;7.370;2022-12-18T14:41:01;10.73;;;5.83;;
12884;SDS011;6510;51.362;7.370;2022-12-18T14:43:31;10.53;;;5.63;;
12884;SDS011;6510;51.362;7.370;2022-12-18T14:45:59;6.83;;;4.83;;
12884;SDS011;6510;51.362;7.370;2022-12-18T14:48:39;9.63;;;5.87;;
12884;SDS011;6510;51.362;7.370;2022-12-18T14:54:02;9.70;;;5.63;;
12884;SDS011;6510;51.362;7.370;2022-12-18T14:56:36;7.83;;;5.43;;
12884;SDS011;6510;51.362;7.370;2022-12-18T14:59:13;8.10;;;5.40;;
12884;SDS011;6510;51.362;7.370;2022-12-18T15:04:39;9.63;;;5.50;;
12884;SDS011;6510;51.362;7.370;2022-12-18T15:09:41;9.57;;;6.30;;
12884;SDS011;6510;51.362;7.370;2022-12-18T15:13:09;10.17;;;6.47;;
12884;SDS011;6510;51.362;7.370;2022-12-18T15:15:05;8.13;;;5.27;;
12884;SDS011;6510;51.362;7.370;2022-12-18T15:17:56;10.07;;;5.73;;
12884;SDS011;6510;51.362;7.370;2022-12-18T15:20:26;15.17;;;8.20;;
12884;SDS011;6510;51.362;7.370;2022-12-18T15:22:52;14.17;;;7.77;;
12884;SDS011;6510;51.362;7.370;2022-12-18T15:25:31;11.10;;;6.57;;
12884;SDS011;6510;51.362;7.370;2022-12-18T15:28:01;11.17;;;6.93;;
12884;SDS011;6510;51.362;7.370;2022-12-18T15:30:27;9.60;;;6.20;;
12884;SDS011;6510;51.362;7.370;2022-12-18T15:33:16;9.33;;;5.87;;
12884;SDS011;6510;51.362;7.370;2022-12-18T15:35:59;11.87;;;7.50;;
12884;SDS011;6510;51.362;7.370;2022-12-18T15:38:26;16.17;;;8.63;;
12884;SDS011;6510;51.362;7.370;2022-12-18T15:40:53;15.13;;;7.43;;
12884;SDS011;6510;51.362;7.370;2022-12-18T15:43:20;11.37;;;6.53;;
12884;SDS011;6510;51.362;7.370;2022-12-18T15:46:12;13.90;;;7.90;;
12884;SDS011;6510;51.362;7.370;2022-12-18T15:48:40;11.47;;;7.10;;
12884;SDS011;6510;51.362;7.370;2022-12-18T15:53:50;11.00;;;7.27;;
12884;SDS011;6510;51.362;7.370;2022-12-18T15:56:18;13.30;;;8.33;;
12884;SDS011;6510;51.362;7.370;2022-12-18T15:59:04;12.87;;;7.87;;
12884;SDS011;6510;51.362;7.370;2022-12-18T16:01:38;13.47;;;7.20;;
12884;SDS011;6510;51.362;7.370;2022-12-18T16:04:04;12.37;;;7.43;;
12884;SDS011;6510;51.362;7.370;2022-12-18T16:06:30;14.80;;;8.13;;
12884;SDS011;6510;51.362;7.370;2022-12-18T16:08:56;12.00;;;7.23;;
12884;SDS011;6510;51.362;7.370;2022-12-18T16:11:28;12.87;;;7.90;;
12884;SDS011;6510;51.362;7.370;2022-12-18T16:16:54;10.77;;;6.67;;
12884;SDS011;6510;51.362;7.370;2022-12-18T16:19:25;12.87;;;7.80;;
12884;SDS011;6510;51.362;7.370;2022-12-18T16:21:55;14.57;;;7.47;;
12884;SDS011;6510;51.362;7.370;2022-12-18T16:24:23;11.13;;;7.87;;
12884;SDS011;6510;51.362;7.370;2022-12-18T16:26:51;14.47;;;8.13;;
12884;SDS011;6510;51.362;7.370;2022-12-18T16:29:18;13.17;;;7.97;;
12884;SDS011;6510;51.362;7.370;2022-12-18T16:31:56;13.40;;;8.33;;
12884;SDS011;6510;51.362;7.370;2022-12-18T16:34:23;17.83;;;9.47;;
12884;SDS011;6510;51.362;7.370;2022-12-18T16:37:00;15.83;;;8.23;;
12884;SDS011;6510;51.362;7.370;2022-12-18T16:39:28;14.50;;;8.90;;
12884;SDS011;6510;51.362;7.370;2022-12-18T16:41:55;15.90;;;9.53;;
12884;SDS011;6510;51.362;7.370;2022-12-18T16:44:21;16.07;;;10.00;;
12884;SDS011;6510;51.362;7.370;2022-12-18T16:46:47;13.20;;;8.43;;
12884;SDS011;6510;51.362;7.370;2022-12-18T16:49:13;16.37;;;9.57;;
12884;SDS011;6510;51.362;7.370;2022-12-18T16:51:42;25.97;;;14.13;;
12884;SDS011;6510;51.362;7.370;2022-12-18T16:54:10;17.87;;;10.63;;
12884;SDS011;6510;51.362;7.370;2022-12-18T16:56:35;19.83;;;11.30;;
12884;SDS011;6510;51.362;7.370;2022-12-18T16:59:01;18.43;;;11.00;;
12884;SDS011;6510;51.362;7.370;2022-12-18T17:01:28;22.93;;;11.37;;
12884;SDS011;6510;51.362;7.370;2022-12-18T17:03:58;16.70;;;9.87;;
12884;SDS011;6510;51.362;7.370;2022-12-18T17:06:39;17.77;;;11.23;;
12884;SDS011;6510;51.362;7.370;2022-12-18T17:09:12;19.83;;;9.90;;
12884;SDS011;6510;51.362;7.370;2022-12-18T17:11:40;27.97;;;16.00;;
12884;SDS011;6510;51.362;7.370;2022-12-18T17:14:13;20.73;;;10.30;;
12884;SDS011;6510;51.362;7.370;2022-12-18T17:16:40;18.50;;;10.90;;
12884;SDS011;6510;51.362;7.370;2022-12-18T17:19:06;19.80;;;11.40;;
12884;SDS011;6510;51.362;7.370;2022-12-18T17:21:32;19.43;;;11.57;;
12884;SDS011;6510;51.362;7.370;2022-12-18T17:23:59;20.00;;;10.90;;
12884;SDS011;6510;51.362;7.370;2022-12-18T17:26:25;19.80;;;12.67;;
12884;SDS011;6510;51.362;7.370;2022-12-18T17:28:51;17.93;;;11.03;;
12884;SDS011;6510;51.362;7.370;2022-12-18T17:31:18;18.40;;;11.03;;
12884;SDS011;6510;51.362;7.370;2022-12-18T17:33:45;17.37;;;11.17;;
12884;SDS011;6510;51.362;7.370;2022-12-18T17:36:11;18.17;;;10.90;;